PAEN/ENA METAR and TAF weather

Enter ICAO airport designator
Station Type Date Time Source
PAEN METAR 2020/04/05 22:53 UTC NOAA

PAEN 052253Z 19021G30KT 10SM CLR 02/M05 A2972 RMK AO2 PK WND 19031/2231 SLP066 T00221050 $


Station Type Date Time Source
PAEN Decoded METAR 2020/04/05 22:53 UTC NOAA

KENAI MUNICIPAL AIRPORT, AK, United States (PAEN) 60-35N 151-14W 25M
Apr 05, 2020 - 06:53 PM EDT / 2020.04.05 2253 UTC
Wind: from the S (190 degrees) at 24 MPH (21 KT) gusting to 35 MPH (30 KT):0
Visibility: 10 mile(s):0
Sky conditions: clear
Temperature: 36.0 F (2.2 C)
Dew Point: 23.0 F (-5.0 C)
Relative Humidity: 58%
Pressure (altimeter): 29.72 in. Hg (1006 hPa)
ob: PAEN 052253Z 19021G30KT 10SM CLR 02/M05 A2972 RMK AO2 PK WND 19031/2231 SLP066 T00221050
cycle: 23

Station Type Date Time Source
PAEN TAF 2020/04/05 18:42 UTC NOAA

TAF PAEN 051740Z 0518/0618 19025G35KT P6SM SKC
FM061200 19030G40KT P6SM SKC

Example: see airport list